Time;durP1;ratioP1;P1;durP2;ratioP2;P2;SDS_P1;SDS_P2;PMS_P1;PMS_P2;Temp;Humidity;BMP_temperature;BMP_pressure;BME280_temperature;BME280_humidity;BME280_pressure;Samples;Min_cycle;Max_cycle;Signal;HPM_P1;HPM_P2
2021/01/15 00:01:03;;;;;;;7.83;6.80;;;0.80;99.90;;;;;;5072005;28;20261;-42
2021/01/15 00:03:33;;;;;;;8.33;6.33;;;0.90;99.90;;;;;;5071919;28;20218;-42
2021/01/15 00:06:05;;;;;;;8.23;6.40;;;0.80;99.90;;;;;;5072182;28;20595;-42
2021/01/15 00:08:33;;;;;;;7.27;6.37;;;0.90;99.90;;;;;;5072011;28;20211;-41
2021/01/15 00:11:01;;;;;;;9.43;7.00;;;0.90;99.90;;;;;;5072200;28;20649;-41
2021/01/15 00:13:28;;;;;;;11.50;7.73;;;0.90;99.90;;;;;;5071837;28;20439;-43
2021/01/15 00:15:55;;;;;;;8.20;6.97;;;0.90;99.90;;;;;;5071832;28;20718;-41
2021/01/15 00:18:22;;;;;;;8.40;6.80;;;0.80;99.90;;;;;;5072170;28;20311;-43
2021/01/15 00:20:49;;;;;;;9.30;6.83;;;0.80;99.90;;;;;;5071782;28;20335;-42
2021/01/15 00:23:16;;;;;;;10.63;7.33;;;0.80;99.90;;;;;;5071853;28;20314;-42
2021/01/15 00:25:44;;;;;;;11.47;7.67;;;0.70;99.90;;;;;;5071879;28;20277;-41
2021/01/15 00:28:12;;;;;;;7.30;6.53;;;0.70;99.90;;;;;;5071844;28;20294;-42
2021/01/15 00:30:39;;;;;;;6.67;6.07;;;0.60;99.90;;;;;;5071894;28;20298;-41
2021/01/15 00:33:06;;;;;;;8.70;6.17;;;0.60;99.90;;;;;;5071969;28;20203;-44
2021/01/15 00:35:33;;;;;;;7.33;5.93;;;0.60;99.90;;;;;;5071845;28;20211;-43
2021/01/15 00:38:00;;;;;;;6.33;5.73;;;0.60;99.90;;;;;;5071726;28;20264;-42
2021/01/15 00:40:27;;;;;;;8.47;7.13;;;0.60;99.90;;;;;;5071732;28;20214;-41
2021/01/15 00:42:54;;;;;;;7.70;5.63;;;0.50;99.90;;;;;;5071575;28;20229;-44
2021/01/15 00:45:22;;;;;;;7.77;6.40;;;0.40;99.90;;;;;;5071478;28;20227;-42
2021/01/15 00:47:49;;;;;;;6.37;5.77;;;0.30;99.90;;;;;;5071840;28;20298;-42
2021/01/15 00:50:16;;;;;;;6.13;5.53;;;0.30;99.90;;;;;;5071610;28;20247;-41
2021/01/15 00:52:43;;;;;;;6.10;5.47;;;0.30;99.90;;;;;;5074901;28;20242;-41
2021/01/15 00:55:11;;;;;;;7.57;5.07;;;0.30;99.90;;;;;;5075411;28;20247;-42
2021/01/15 00:57:38;;;;;;;8.37;7.23;;;0.30;99.90;;;;;;5075323;28;20307;-41
2021/01/15 01:00:09;;;;;;;9.67;6.60;;;0.30;99.90;;;;;;5075276;28;20574;-43
2021/01/15 01:02:36;;;;;;;6.80;6.20;;;0.20;99.90;;;;;;5075299;28;20239;-43
2021/01/15 01:05:05;;;;;;;7.17;6.33;;;0.20;99.90;;;;;;5075085;28;20214;-42
2021/01/15 01:07:32;;;;;;;7.97;6.10;;;0.20;99.90;;;;;;5075012;28;20222;-42
2021/01/15 01:09:59;;;;;;;7.57;6.80;;;0.20;99.90;;;;;;5075036;28;20554;-42
2021/01/15 01:12:26;;;;;;;8.47;7.67;;;0.20;99.90;;;;;;5075020;28;20330;-43
2021/01/15 01:14:53;;;;;;;7.53;6.80;;;0.20;99.90;;;;;;5074928;28;20609;-43
2021/01/15 01:17:20;;;;;;;8.07;7.17;;;0.20;99.90;;;;;;5075043;28;20227;-41
2021/01/15 01:19:48;;;;;;;7.90;6.33;;;0.20;99.90;;;;;;5074785;28;20214;-42
2021/01/15 01:22:16;;;;;;;7.93;6.80;;;0.20;99.90;;;;;;5075237;28;20207;-42
2021/01/15 01:24:43;;;;;;;6.97;6.27;;;0.20;99.90;;;;;;5074782;28;20284;-42
2021/01/15 01:27:10;;;;;;;8.87;6.23;;;0.10;99.90;;;;;;5074778;28;20684;-42
2021/01/15 01:29:37;;;;;;;7.37;6.67;;;0.10;99.90;;;;;;5074742;28;20710;-42
2021/01/15 01:32:04;;;;;;;7.20;6.50;;;0.10;99.90;;;;;;5074737;28;20258;-43
2021/01/15 01:34:32;;;;;;;6.97;6.00;;;0.10;99.90;;;;;;5074533;28;20207;-43
2021/01/15 01:37:00;;;;;;;6.63;5.93;;;0.10;99.90;;;;;;5074606;28;20199;-42
2021/01/15 01:39:27;;;;;;;8.97;6.10;;;0.00;99.90;;;;;;5074807;28;20269;-43
2021/01/15 01:41:54;;;;;;;6.73;6.07;;;0.00;99.90;;;;;;5074728;28;20215;-42
2021/01/15 01:44:21;;;;;;;6.43;5.83;;;-0.10;99.90;;;;;;5074595;28;20237;-43
2021/01/15 01:46:49;;;;;;;7.03;6.07;;;-0.10;99.90;;;;;;5074690;28;20274;-42
2021/01/15 01:49:16;;;;;;;8.27;5.73;;;-0.20;99.90;;;;;;5074396;28;20284;-42
2021/01/15 01:51:45;;;;;;;7.90;7.03;;;-0.20;99.90;;;;;;5074274;28;20291;-42
2021/01/15 01:54:13;;;;;;;8.33;6.67;;;-0.20;99.90;;;;;;5074430;28;20204;-41
2021/01/15 01:56:41;;;;;;;6.97;5.90;;;-0.20;99.90;;;;;;5074300;28;20204;-43
2021/01/15 01:59:12;;;;;;;6.13;5.63;;;-0.20;99.90;;;;;;5074182;28;20239;-42
2021/01/15 02:01:39;;;;;;;6.33;5.67;;;-0.20;99.90;;;;;;5074151;28;20207;-42
2021/01/15 02:04:07;;;;;;;7.70;5.63;;;-0.20;99.90;;;;;;5074033;28;20208;-42
2021/01/15 02:06:35;;;;;;;8.07;6.00;;;-0.30;99.90;;;;;;5074273;28;20231;-43
2021/01/15 02:09:04;;;;;;;6.77;6.03;;;-0.30;99.90;;;;;;5074002;28;20321;-42
2021/01/15 02:11:41;;;;;;;8.07;5.77;;;-0.30;99.90;;;;;;5073855;28;20302;-45
2021/01/15 02:14:21;;;;;;;5.73;5.10;;;-0.40;99.90;;;;;;5074076;28;20302;-44
2021/01/15 02:16:50;;;;;;;11.83;5.97;;;-0.40;99.90;;;;;;5074191;28;20359;-42
2021/01/15 02:19:33;;;;;;;8.00;6.00;;;-0.40;99.90;;;;;;5073690;28;20298;-41
2021/01/15 02:22:30;;;;;;;7.37;6.47;;;-0.40;99.90;;;;;;5074094;28;20290;-42
2021/01/15 02:25:16;;;;;;;5.87;5.17;;;-0.50;99.90;;;;;;5073585;28;20603;-42
2021/01/15 02:28:14;;;;;;;6.20;5.60;;;-0.40;99.90;;;;;;5073894;28;20231;-42
2021/01/15 02:31:04;;;;;;;8.30;5.87;;;-0.50;99.90;;;;;;5073624;28;20303;-42
2021/01/15 02:33:45;;;;;;;6.33;5.67;;;-0.50;99.90;;;;;;5073731;28;20268;-45
2021/01/15 02:36:21;;;;;;;8.10;6.67;;;-0.60;99.90;;;;;;5073508;28;20243;-43
2021/01/15 02:38:53;;;;;;;10.03;6.40;;;-0.60;99.90;;;;;;5073402;28;20682;-42
2021/01/15 02:41:26;;;;;;;9.30;6.63;;;-0.60;99.90;;;;;;5073297;28;20314;-42
2021/01/15 02:43:56;;;;;;;8.47;6.67;;;-0.60;99.90;;;;;;5073812;28;20215;-42
2021/01/15 02:46:37;;;;;;;8.70;6.97;;;-0.60;99.90;;;;;;5073409;28;20227;-42
2021/01/15 02:49:06;;;;;;;6.77;6.10;;;-0.50;99.90;;;;;;5073318;28;20215;-42
2021/01/15 02:51:33;;;;;;;7.73;6.10;;;-0.60;99.90;;;;;;5073189;28;20306;-43
2021/01/15 02:54:00;;;;;;;8.70;6.57;;;-0.60;99.90;;;;;;5073075;28;20286;-42
2021/01/15 02:56:27;;;;;;;7.10;6.33;;;-0.60;99.90;;;;;;5073008;28;20203;-42
2021/01/15 02:58:54;;;;;;;9.60;6.93;;;-0.60;99.90;;;;;;5073277;28;20272;-43
2021/01/15 03:01:22;;;;;;;9.35;7.30;;;-0.70;99.90;;;;;;5073081;28;20249;-42
2021/01/15 03:03:56;;;;;;;7.17;6.47;;;-0.70;99.90;;;;;;5072973;28;20238;-43
2021/01/15 03:06:34;;;;;;;8.60;6.47;;;-0.70;99.90;;;;;;5072978;28;20233;-42
2021/01/15 03:09:02;;;;;;;8.97;7.17;;;-0.70;99.90;;;;;;5072947;28;20306;-42
2021/01/15 03:11:33;;;;;;;9.67;6.70;;;-0.70;99.90;;;;;;5072645;28;20293;-42
2021/01/15 03:14:01;;;;;;;9.33;6.60;;;-0.80;99.90;;;;;;5072432;28;20234;-42
2021/01/15 03:16:30;;;;;;;6.43;5.83;;;-0.90;99.90;;;;;;5072681;28;20273;-42
2021/01/15 03:18:59;;;;;;;8.37;6.27;;;-1.00;99.90;;;;;;5072705;28;20329;-44
2021/01/15 03:21:31;;;;;;;7.13;6.53;;;-1.10;99.90;;;;;;5072919;28;20217;-43
2021/01/15 03:24:03;;;;;;;8.00;7.23;;;-1.20;99.90;;;;;;5072668;28;20242;-42
2021/01/15 03:26:30;;;;;;;9.00;6.83;;;-1.30;99.90;;;;;;5072857;28;20227;-42
2021/01/15 03:28:57;;;;;;;6.73;5.93;;;-1.30;99.90;;;;;;5072617;28;20637;-42
2021/01/15 03:31:26;;;;;;;9.67;7.73;;;-1.30;99.90;;;;;;5072339;28;20210;-42
2021/01/15 03:33:54;;;;;;;8.47;7.20;;;-1.40;99.90;;;;;;5072195;28;20207;-42
2021/01/15 03:36:21;;;;;;;8.47;7.40;;;-1.40;99.90;;;;;;5072505;28;20238;-42
2021/01/15 03:38:49;;;;;;;7.50;6.80;;;-1.40;99.90;;;;;;5072296;28;20208;-40
2021/01/15 03:41:16;;;;;;;10.33;7.83;;;-1.40;99.90;;;;;;5072476;28;20286;-41
2021/01/15 03:43:42;;;;;;;8.53;7.47;;;-1.40;99.90;;;;;;5072292;28;20299;-41
2021/01/15 03:46:09;;;;;;;12.63;7.43;;;-1.40;99.90;;;;;;5072125;28;20254;-42
2021/01/15 03:48:37;;;;;;;20.13;12.30;;;-1.40;99.90;;;;;;5072542;28;20709;-42
2021/01/15 03:51:04;;;;;;;10.00;7.80;;;-1.40;99.90;;;;;;5072283;28;20222;-42
2021/01/15 03:53:31;;;;;;;7.97;7.17;;;-1.50;99.90;;;;;;5072343;28;20207;-42
2021/01/15 03:55:59;;;;;;;11.30;7.57;;;-1.40;99.90;;;;;;5072046;28;20206;-43
2021/01/15 03:58:27;;;;;;;9.03;8.13;;;-1.40;99.90;;;;;;5072098;28;20208;-42
2021/01/15 04:00:54;;;;;;;9.40;7.80;;;-1.40;99.90;;;;;;5072045;28;20219;-43
2021/01/15 04:03:21;;;;;;;9.80;8.47;;;-1.50;99.90;;;;;;5072238;28;20292;-45
2021/01/15 04:05:48;;;;;;;8.93;7.67;;;-1.60;99.90;;;;;;5072036;28;20686;-42
2021/01/15 04:08:15;;;;;;;11.13;9.40;;;-1.60;99.90;;;;;;5072125;28;20714;-45
2021/01/15 04:10:42;;;;;;;9.70;7.97;;;-1.60;99.90;;;;;;5072000;28;20295;-42
2021/01/15 04:13:10;;;;;;;10.37;7.70;;;-1.60;99.90;;;;;;5071698;28;20235;-42
2021/01/15 04:15:37;;;;;;;8.70;7.67;;;-1.60;99.90;;;;;;5071913;28;20242;-42
2021/01/15 04:18:04;;;;;;;9.17;7.77;;;-1.60;99.90;;;;;;5071982;28;20277;-44
2021/01/15 04:20:31;;;;;;;13.67;8.73;;;-1.60;99.90;;;;;;5071869;28;20623;-42
2021/01/15 04:22:58;;;;;;;14.27;10.10;;;-1.60;99.90;;;;;;5071969;28;20211;-43
2021/01/15 04:25:25;;;;;;;9.27;8.30;;;-1.60;99.90;;;;;;5073158;28;20294;-42
2021/01/15 04:27:52;;;;;;;9.67;8.20;;;-1.60;99.90;;;;;;5075717;28;20231;-42
2021/01/15 04:30:21;;;;;;;11.30;10.17;;;-1.60;99.90;;;;;;5076064;28;20204;-42
2021/01/15 04:32:48;;;;;;;10.17;8.90;;;-1.60;99.90;;;;;;5075661;28;20298;-44
2021/01/15 04:35:17;;;;;;;10.40;8.40;;;-1.60;99.90;;;;;;5075906;28;20230;-42
2021/01/15 04:37:44;;;;;;;10.07;8.17;;;-1.60;99.90;;;;;;5075589;28;20272;-43
2021/01/15 04:40:12;;;;;;;11.67;8.13;;;-1.70;99.90;;;;;;5075739;28;20238;-43
2021/01/15 04:42:42;;;;;;;10.17;8.33;;;-1.70;99.90;;;;;;5075696;28;20239;-43
2021/01/15 04:45:11;;;;;;;9.73;8.40;;;-1.80;99.90;;;;;;5075810;28;20260;-42
2021/01/15 04:47:43;;;;;;;12.07;9.33;;;-1.80;99.90;;;;;;5075611;28;20258;-43
2021/01/15 04:50:15;;;;;;;11.33;10.03;;;-1.80;99.90;;;;;;5075671;28;20211;-44
2021/01/15 04:52:48;;;;;;;15.33;9.70;;;-1.80;99.90;;;;;;5075543;28;20298;-44
2021/01/15 04:55:19;;;;;;;11.70;9.73;;;-1.80;99.90;;;;;;5075338;28;20261;-43
2021/01/15 04:57:50;;;;;;;12.30;9.53;;;-1.90;99.90;;;;;;5075647;28;20207;-41
2021/01/15 05:00:20;;;;;;;13.07;10.27;;;-1.90;99.90;;;;;;5075644;28;20233;-43
2021/01/15 05:02:49;;;;;;;12.77;10.37;;;-1.90;99.90;;;;;;5075149;28;20261;-43
2021/01/15 05:05:20;;;;;;;14.57;9.83;;;-2.00;99.90;;;;;;5075125;28;20218;-43
2021/01/15 05:08:09;;;;;;;12.57;10.53;;;-2.00;99.90;;;;;;5075168;28;20330;-43
2021/01/15 05:10:38;;;;;;;12.40;10.27;;;-2.00;99.90;;;;;;5075213;28;20577;-42
2021/01/15 05:13:07;;;;;;;13.80;9.97;;;-2.00;99.90;;;;;;5074976;28;20239;-43
2021/01/15 05:15:36;;;;;;;12.43;10.60;;;-2.10;99.90;;;;;;5074988;28;20216;-43
2021/01/15 05:18:06;;;;;;;17.52;13.52;;;-2.10;99.90;;;;;;5074653;28;20258;-42
2021/01/15 05:20:33;;;;;;;20.13;11.87;;;-2.20;99.90;;;;;;5075021;28;20581;-42
2021/01/15 05:23:01;;;;;;;14.20;12.47;;;-2.10;99.90;;;;;;5074823;28;20249;-42
2021/01/15 05:25:29;;;;;;;17.90;12.57;;;-2.20;99.90;;;;;;5074827;28;20569;-42
2021/01/15 05:27:57;;;;;;;15.07;12.00;;;-2.20;99.90;;;;;;5074479;28;20326;-42
2021/01/15 05:30:25;;;;;;;14.20;10.97;;;-2.20;99.90;;;;;;5074509;28;20295;-42
2021/01/15 05:32:54;;;;;;;17.30;13.53;;;-2.10;99.90;;;;;;5074608;28;20306;-42
2021/01/15 05:35:44;;;;;;;16.43;12.63;;;-2.10;99.90;;;;;;5074689;28;20549;-43
2021/01/15 05:38:14;;;;;;;19.13;13.20;;;-2.10;99.90;;;;;;5073990;28;20298;-41
2021/01/15 05:40:43;;;;;;;13.77;12.27;;;-2.10;99.90;;;;;;5074273;28;20666;-42
2021/01/15 05:43:25;;;;;;;17.40;13.73;;;-2.10;99.90;;;;;;5074358;28;20203;-42
2021/01/15 05:46:10;;;;;;;17.27;13.07;;;-2.10;99.90;;;;;;5074352;28;20634;-42
2021/01/15 05:48:39;;;;;;;24.77;13.57;;;-2.20;99.90;;;;;;5074378;28;20692;-41
2021/01/15 05:51:22;;;;;;;42.73;15.07;;;-2.30;99.90;;;;;;5074285;28;20203;-43
2021/01/15 05:53:49;;;;;;;35.27;16.03;;;-2.40;99.90;;;;;;5074350;28;20293;-45
2021/01/15 05:56:17;;;;;;;30.37;16.27;;;-2.50;99.90;;;;;;5074378;28;20393;-50
2021/01/15 05:59:00;;;;;;;35.37;16.93;;;-2.40;99.90;;;;;;5074076;28;20208;-50
2021/01/15 06:01:48;;;;;;;34.77;16.23;;;-2.30;99.90;;;;;;5074217;28;20295;-46
2021/01/15 06:04:17;;;;;;;28.43;16.17;;;-2.20;99.90;;;;;;5074862;28;20218;-47
2021/01/15 06:06:47;;;;;;;25.63;14.47;;;-2.10;99.90;;;;;;5074146;28;20317;-46
2021/01/15 06:09:19;;;;;;;26.33;16.43;;;-2.00;99.90;;;;;;5074098;28;20298;-45
2021/01/15 06:11:47;;;;;;;22.47;15.53;;;-1.90;99.90;;;;;;5073909;28;20230;-47
2021/01/15 06:14:22;;;;;;;21.00;15.23;;;-1.80;99.90;;;;;;5074007;28;20204;-47
2021/01/15 06:17:00;;;;;;;27.30;16.90;;;-1.80;99.90;;;;;;5074014;28;20564;-46
2021/01/15 06:19:42;;;;;;;26.37;16.30;;;-1.80;99.90;;;;;;5074009;28;20218;-47
2021/01/15 06:22:26;;;;;;;27.97;17.43;;;-1.80;99.90;;;;;;5073767;28;20738;-46
2021/01/15 06:25:17;;;;;;;26.80;17.20;;;-1.90;99.90;;;;;;5073940;28;20241;-46
2021/01/15 06:27:44;;;;;;;24.50;16.20;;;-1.80;99.90;;;;;;5072347;28;20684;-46
2021/01/15 06:30:17;;;;;;;22.80;15.87;;;-1.70;99.90;;;;;;5073818;28;20305;-47
2021/01/15 06:32:46;;;;;;;22.80;15.33;;;-1.50;99.90;;;;;;5073568;28;20214;-48
2021/01/15 06:35:27;;;;;;;22.27;16.00;;;-1.30;99.90;;;;;;5073547;28;20208;-44
2021/01/15 06:38:00;;;;;;;24.33;16.67;;;-1.10;99.90;;;;;;5073529;28;20257;-47
2021/01/15 06:40:32;;;;;;;24.43;15.40;;;-1.00;99.90;;;;;;5073515;28;20250;-46
2021/01/15 06:42:59;;;;;;;31.13;18.63;;;-1.00;99.90;;;;;;5073545;28;20294;-44
2021/01/15 06:45:36;;;;;;;22.27;15.60;;;-0.90;99.90;;;;;;5073277;28;20226;-47
2021/01/15 06:48:08;;;;;;;32.50;19.10;;;-0.90;99.90;;;;;;5073364;28;20237;-44
2021/01/15 06:50:38;;;;;;;26.57;18.80;;;-0.90;99.90;;;;;;5072600;28;20215;-46
2021/01/15 06:53:15;;;;;;;27.47;18.73;;;-0.90;99.90;;;;;;5073276;28;20250;-47
2021/01/15 06:55:45;;;;;;;24.13;16.83;;;-0.80;99.90;;;;;;5073140;28;20206;-45
2021/01/15 06:58:25;;;;;;;29.57;18.13;;;-0.90;99.90;;;;;;5072980;28;20726;-46
2021/01/15 07:01:26;;;;;;;21.33;15.40;;;-0.80;99.90;;;;;;5073164;28;20284;-46
2021/01/15 07:04:09;;;;;;;20.57;14.30;;;-0.80;99.90;;;;;;5050900;28;20212;-44
2021/01/15 07:06:37;;;;;;;21.63;14.10;;;-0.70;99.90;;;;;;5050683;28;20314;-46
2021/01/15 07:09:06;;;;;;;23.43;15.00;;;-0.70;99.90;;;;;;5063336;28;20294;-43
2021/01/15 07:11:34;;;;;;;20.47;14.87;;;-0.60;99.90;;;;;;5072799;28;20234;-46
2021/01/15 07:14:03;;;;;;;19.53;14.30;;;-0.60;99.90;;;;;;5072866;28;20270;-43
2021/01/15 07:16:32;;;;;;;21.07;15.83;;;-0.60;99.90;;;;;;5072712;28;20332;-45
2021/01/15 07:19:14;;;;;;;21.03;15.27;;;-0.60;99.90;;;;;;5073000;28;20211;-45
2021/01/15 07:22:07;;;;;;;21.87;15.07;;;-0.60;99.90;;;;;;5072719;28;20203;-44
2021/01/15 07:24:36;;;;;;;47.87;35.40;;;-0.60;99.90;;;;;;5072616;28;20207;-45
2021/01/15 07:27:04;;;;;;;31.90;26.50;;;-0.60;99.90;;;;;;5072437;28;20460;-47
2021/01/15 07:29:35;;;;;;;22.17;15.43;;;-0.50;99.90;;;;;;5072517;28;20723;-45
2021/01/15 07:32:07;;;;;;;26.20;19.10;;;-0.40;99.90;;;;;;5072708;28;20301;-48
2021/01/15 07:34:43;;;;;;;23.53;16.33;;;-0.40;99.90;;;;;;5072469;28;20677;-46
2021/01/15 07:37:21;;;;;;;23.63;17.37;;;-0.30;99.90;;;;;;5072540;28;20303;-45
2021/01/15 07:40:07;;;;;;;22.27;15.63;;;-0.30;99.90;;;;;;5072285;28;20217;-44
2021/01/15 07:42:45;;;;;;;30.33;21.83;;;-0.30;99.90;;;;;;5072513;28;20733;-44
2021/01/15 07:45:52;;;;;;;21.73;15.03;;;-0.30;99.90;;;;;;5072254;28;20203;-44
2021/01/15 07:48:20;;;;;;;21.47;15.40;;;-0.30;99.90;;;;;;5072454;28;20680;-44
2021/01/15 07:50:49;;;;;;;21.60;14.70;;;-0.20;99.90;;;;;;5072443;28;20257;-48
2021/01/15 07:53:43;;;;;;;20.73;14.63;;;-0.20;99.90;;;;;;5072190;28;20246;-46
2021/01/15 07:56:11;;;;;;;20.53;13.93;;;-0.20;99.90;;;;;;5071552;28;20211;-46
2021/01/15 07:58:45;;;;;;;23.10;14.63;;;-0.10;99.90;;;;;;5072110;28;20246;-46
2021/01/15 08:01:16;;;;;;;22.20;14.80;;;0.00;99.90;;;;;;5072014;28;20214;-47
2021/01/15 08:03:44;;;;;;;21.50;14.77;;;0.00;99.90;;;;;;5072051;28;20257;-45
2021/01/15 08:06:12;;;;;;;24.83;16.87;;;0.10;99.90;;;;;;5072145;28;20218;-44
2021/01/15 08:08:58;;;;;;;23.83;15.97;;;0.10;99.90;;;;;;5071831;28;20235;-45
2021/01/15 08:11:27;;;;;;;25.83;19.67;;;0.10;99.90;;;;;;5071680;28;20743;-44
2021/01/15 08:14:10;;;;;;;26.40;17.90;;;0.10;99.90;;;;;;5071848;28;20257;-48
2021/01/15 08:16:38;;;;;;;24.03;15.93;;;0.10;99.90;;;;;;5071838;28;20242;-48
2021/01/15 08:19:08;;;;;;;26.00;16.60;;;0.10;99.90;;;;;;5071634;28;20331;-47
2021/01/15 08:21:36;;;;;;;31.40;22.03;;;0.20;99.90;;;;;;5072110;28;20214;-47
2021/01/15 08:24:03;;;;;;;35.00;21.63;;;0.20;99.90;;;;;;5071975;28;20290;-44
2021/01/15 08:26:42;;;;;;;23.83;17.00;;;0.20;99.90;;;;;;5071828;28;20233;-43
2021/01/15 08:29:09;;;;;;;27.13;18.30;;;0.10;99.90;;;;;;5071907;28;20234;-45
2021/01/15 08:31:36;;;;;;;21.33;14.50;;;0.20;99.90;;;;;;5071678;28;20294;-50
2021/01/15 08:34:06;;;;;;;44.47;24.17;;;0.30;99.90;;;;;;5071855;28;20211;-44
2021/01/15 08:36:35;;;;;;;22.07;16.67;;;0.40;99.90;;;;;;5071709;28;20298;-45
2021/01/15 08:39:02;;;;;;;25.20;19.97;;;0.40;99.90;;;;;;5071605;28;20217;-47
2021/01/15 08:41:29;;;;;;;26.40;16.73;;;0.40;99.90;;;;;;5071580;28;20211;-47
2021/01/15 08:43:57;;;;;;;72.80;37.70;;;0.40;99.90;;;;;;5071577;28;20212;-45
2021/01/15 08:46:24;;;;;;;26.87;21.33;;;0.30;99.90;;;;;;5071454;28;20634;-42
2021/01/15 08:48:52;;;;;;;96.57;48.23;;;0.30;99.90;;;;;;5071840;28;20303;-43
2021/01/15 08:51:25;;;;;;;55.47;32.60;;;0.40;99.90;;;;;;5071876;28;20239;-48
2021/01/15 08:54:06;;;;;;;28.17;18.73;;;0.50;99.90;;;;;;5071362;28;20211;-46
2021/01/15 08:56:38;;;;;;;23.70;17.30;;;0.30;99.90;;;;;;5071440;28;20199;-45
2021/01/15 08:59:08;;;;;;;30.60;20.27;;;0.10;99.90;;;;;;5071788;28;20215;-47
2021/01/15 09:01:36;;;;;;;20.40;16.70;;;0.10;99.90;;;;;;5071673;28;20634;-48
2021/01/15 09:04:06;;;;;;;22.53;16.37;;;0.10;99.90;;;;;;5071619;28;20204;-46
2021/01/15 09:06:34;;;;;;;22.70;17.47;;;0.10;99.90;;;;;;5071352;28;20302;-48
2021/01/15 09:09:04;;;;;;;22.73;16.13;;;0.20;99.90;;;;;;5071095;28;20313;-47
2021/01/15 09:11:34;;;;;;;23.67;17.33;;;0.30;99.90;;;;;;5071697;28;20253;-51
2021/01/15 09:14:03;;;;;;;23.93;17.47;;;0.50;99.90;;;;;;5074904;28;20586;-49
2021/01/15 09:16:31;;;;;;;25.07;17.07;;;0.50;99.90;;;;;;5074925;28;20212;-48
2021/01/15 09:19:06;;;;;;;22.30;16.87;;;0.50;99.90;;;;;;5075099;28;20207;-47
2021/01/15 09:21:33;;;;;;;22.40;17.23;;;0.60;99.90;;;;;;5074794;28;20207;-46
2021/01/15 09:24:00;;;;;;;21.33;16.30;;;0.60;99.90;;;;;;5074883;28;20298;-45
2021/01/15 09:26:27;;;;;;;26.03;17.70;;;0.70;99.90;;;;;;5074744;28;20207;-47
2021/01/15 09:28:54;;;;;;;21.43;16.40;;;0.70;99.90;;;;;;5074839;28;20371;-44
2021/01/15 09:31:21;;;;;;;23.00;16.60;;;0.70;99.90;;;;;;5074777;28;20302;-45
2021/01/15 09:33:51;;;;;;;22.90;17.13;;;0.80;99.90;;;;;;5074692;28;20215;-48
2021/01/15 09:36:26;;;;;;;25.13;17.77;;;0.90;99.90;;;;;;5074689;28;20203;-47
2021/01/15 09:38:55;;;;;;;22.90;17.33;;;1.00;99.90;;;;;;5074882;28;20269;-42
2021/01/15 09:41:22;;;;;;;25.07;16.73;;;1.00;99.90;;;;;;5074431;28;20658;-48
2021/01/15 09:43:53;;;;;;;22.33;16.60;;;1.00;99.90;;;;;;5074438;28;20256;-42
2021/01/15 09:46:23;;;;;;;23.47;18.33;;;1.10;99.90;;;;;;5074088;28;20243;-41
2021/01/15 09:48:52;;;;;;;24.67;19.63;;;1.10;99.90;;;;;;5074235;28;20290;-43
2021/01/15 09:51:24;;;;;;;24.40;17.60;;;1.10;99.90;;;;;;5074215;28;20207;-45
2021/01/15 09:53:51;;;;;;;39.57;27.63;;;1.10;99.90;;;;;;5073954;28;20215;-45
2021/01/15 09:56:23;;;;;;;38.07;28.43;;;1.10;99.90;;;;;;5074149;28;20207;-45
2021/01/15 09:58:50;;;;;;;25.47;19.10;;;1.10;99.90;;;;;;5074093;28;20239;-42
2021/01/15 10:01:17;;;;;;;26.57;19.00;;;1.10;99.90;;;;;;5073849;28;20682;-41
2021/01/15 10:03:44;;;;;;;31.00;21.10;;;1.10;99.90;;;;;;5074116;28;20242;-46
2021/01/15 10:06:16;;;;;;;24.30;19.87;;;1.20;99.90;;;;;;5073903;28;20243;-47
2021/01/15 10:08:44;;;;;;;24.37;19.40;;;1.20;99.90;;;;;;5073860;28;20660;-48
2021/01/15 10:11:23;;;;;;;24.57;18.97;;;1.20;99.90;;;;;;5073685;28;20297;-42
2021/01/15 10:13:52;;;;;;;25.27;18.47;;;1.10;99.90;;;;;;5073270;28;20239;-42
2021/01/15 10:16:21;;;;;;;25.87;17.40;;;1.20;99.90;;;;;;5073850;28;20203;-43
2021/01/15 10:18:48;;;;;;;25.63;18.47;;;1.30;99.90;;;;;;5073746;28;20207;-41
2021/01/15 10:21:19;;;;;;;28.93;21.37;;;1.50;99.90;;;;;;5073774;28;20245;-42
2021/01/15 10:23:46;;;;;;;25.80;18.77;;;1.60;99.90;;;;;;5073453;28;20231;-43
2021/01/15 10:26:23;;;;;;;26.43;18.33;;;1.70;99.90;;;;;;5073559;28;20210;-41
2021/01/15 10:28:56;;;;;;;24.57;20.00;;;1.80;99.90;;;;;;5073727;28;20278;-44
2021/01/15 10:31:24;;;;;;;26.53;20.00;;;1.70;99.90;;;;;;5073656;28;20226;-50
2021/01/15 10:33:52;;;;;;;25.70;19.80;;;1.70;99.90;;;;;;5073216;28;20727;-42
2021/01/15 10:36:20;;;;;;;23.20;18.27;;;1.60;99.90;;;;;;5073795;28;20669;-45
2021/01/15 10:38:47;;;;;;;27.10;19.80;;;1.70;99.90;;;;;;5073438;28;20290;-48
2021/01/15 10:41:14;;;;;;;28.77;21.93;;;1.80;99.90;;;;;;5073351;28;20303;-42
2021/01/15 10:43:42;;;;;;;23.83;18.60;;;1.70;99.90;;;;;;5073469;28;20299;-46
2021/01/15 10:46:09;;;;;;;32.57;23.30;;;1.60;99.90;;;;;;5073003;28;20254;-45
2021/01/15 10:48:36;;;;;;;40.57;31.63;;;1.70;99.90;;;;;;5073228;28;20770;-44
2021/01/15 10:51:06;;;;;;;64.37;44.27;;;1.80;99.90;;;;;;5073125;28;20302;-43
2021/01/15 10:53:34;;;;;;;30.27;22.30;;;1.80;99.90;;;;;;5073416;28;20223;-42
2021/01/15 10:56:01;;;;;;;30.80;25.03;;;1.80;99.90;;;;;;5073226;28;20310;-43
2021/01/15 10:58:28;;;;;;;22.83;17.60;;;1.80;99.90;;;;;;5072972;28;20250;-42
2021/01/15 11:00:55;;;;;;;34.90;27.60;;;1.90;99.90;;;;;;5073094;28;20286;-46
2021/01/15 11:03:22;;;;;;;22.97;18.13;;;2.00;99.90;;;;;;5072891;28;20292;-42
2021/01/15 11:05:50;;;;;;;22.27;18.27;;;2.10;99.90;;;;;;5072772;28;20666;-42
2021/01/15 11:08:17;;;;;;;24.52;21.45;;;2.20;99.90;;;;;;5072938;28;20633;-41
2021/01/15 11:10:44;;;;;;;26.13;21.30;;;2.30;99.90;;;;;;5072948;28;20592;-41
2021/01/15 11:13:11;;;;;;;24.27;18.37;;;2.30;99.90;;;;;;5072510;28;20330;-42
2021/01/15 11:15:38;;;;;;;26.10;19.63;;;2.30;99.90;;;;;;5072826;28;20214;-45
2021/01/15 11:18:05;;;;;;;27.47;20.90;;;2.30;99.90;;;;;;5072736;28;20570;-47
2021/01/15 11:20:32;;;;;;;23.70;18.97;;;2.40;99.90;;;;;;5072460;28;20211;-43
2021/01/15 11:22:59;;;;;;;27.23;19.77;;;2.50;99.90;;;;;;5072586;28;20756;-44
2021/01/15 11:25:26;;;;;;;54.88;37.08;;;2.60;99.90;;;;;;5072496;28;20215;-44
2021/01/15 11:27:59;;;;;;;29.67;21.90;;;2.60;99.90;;;;;;5072341;28;20314;-45
2021/01/15 11:30:26;;;;;;;31.70;27.83;;;2.60;99.90;;;;;;5072333;28;20306;-44
2021/01/15 11:32:55;;;;;;;25.33;20.27;;;2.60;99.90;;;;;;5072245;28;20290;-47
2021/01/15 11:35:23;;;;;;;23.67;17.90;;;2.60;99.90;;;;;;5071676;28;20669;-49
2021/01/15 11:37:57;;;;;;;24.87;18.73;;;2.50;99.90;;;;;;5072520;28;20241;-44
2021/01/15 11:40:26;;;;;;;24.60;18.38;;;2.60;99.90;;;;;;5072437;28;20218;-47
2021/01/15 11:42:57;;;;;;;24.60;18.17;;;2.70;99.90;;;;;;5072264;28;20313;-45
2021/01/15 11:45:25;;;;;;;24.60;18.40;;;2.80;99.90;;;;;;5071442;28;20211;-47
2021/01/15 11:47:52;;;;;;;23.67;18.03;;;2.70;99.90;;;;;;5072138;28;20318;-47
2021/01/15 11:50:20;;;;;;;24.43;18.43;;;2.80;99.90;;;;;;5072018;28;20211;-44
2021/01/15 11:52:54;;;;;;;22.43;18.63;;;2.80;99.90;;;;;;5071911;28;20210;-45
2021/01/15 11:55:22;;;;;;;29.90;23.00;;;2.80;99.90;;;;;;5071845;28;20204;-48
2021/01/15 11:57:50;;;;;;;21.60;17.27;;;2.80;99.90;;;;;;5071813;28;20227;-47
2021/01/15 12:00:18;;;;;;;25.80;19.23;;;2.60;99.90;;;;;;5071818;28;20203;-50
2021/01/15 12:02:46;;;;;;;24.33;19.20;;;2.40;99.90;;;;;;5071739;28;20279;-50
2021/01/15 12:05:14;;;;;;;22.80;17.60;;;2.10;99.90;;;;;;5072091;28;20260;-46
2021/01/15 12:07:41;;;;;;;25.63;19.40;;;2.20;99.90;;;;;;5071808;28;20220;-48
2021/01/15 12:10:09;;;;;;;440.03;270.73;;;2.20;99.90;;;;;;5071563;28;20270;-45
2021/01/15 12:12:37;;;;;;;34.20;26.80;;;2.20;99.90;;;;;;5071811;28;20253;-51
2021/01/15 12:15:05;;;;;;;28.43;22.17;;;2.10;99.90;;;;;;5071782;28;20245;-45
2021/01/15 12:17:32;;;;;;;22.33;18.07;;;2.00;99.90;;;;;;5071851;28;20199;-43
2021/01/15 12:20:00;;;;;;;27.20;19.87;;;1.90;99.90;;;;;;5071791;28;20301;-45
2021/01/15 12:22:27;;;;;;;27.87;19.53;;;1.90;99.90;;;;;;5071680;28;20242;-43
2021/01/15 12:24:54;;;;;;;26.63;21.97;;;1.90;99.90;;;;;;5071532;28;20673;-43
2021/01/15 12:27:22;;;;;;;25.10;19.07;;;1.70;99.90;;;;;;5071715;28;20321;-43
2021/01/15 12:29:49;;;;;;;23.50;18.07;;;1.50;99.90;;;;;;5071508;28;20211;-44
2021/01/15 12:32:16;;;;;;;22.83;17.58;;;1.40;99.90;;;;;;5071710;28;20250;-42
2021/01/15 12:34:43;;;;;;;23.67;17.97;;;1.40;99.90;;;;;;5071579;28;20230;-45
2021/01/15 12:37:11;;;;;;;24.17;18.73;;;1.50;99.90;;;;;;5071476;28;20312;-46
2021/01/15 12:39:38;;;;;;;21.50;16.90;;;1.60;99.90;;;;;;5071378;28;20207;-44
2021/01/15 12:42:05;;;;;;;23.53;17.23;;;1.70;99.90;;;;;;5071496;28;20294;-43
2021/01/15 12:44:32;;;;;;;20.53;16.60;;;1.70;99.90;;;;;;5071472;28;20261;-43
2021/01/15 12:46:59;;;;;;;27.87;17.50;;;1.60;99.90;;;;;;5071775;28;20627;-47
2021/01/15 12:49:26;;;;;;;18.30;16.13;;;1.70;99.90;;;;;;5075216;28;20211;-45
2021/01/15 12:51:53;;;;;;;21.23;17.27;;;1.80;99.90;;;;;;5075159;28;20573;-45
2021/01/15 12:54:22;;;;;;;22.35;17.35;;;2.00;99.90;;;;;;5075218;28;20215;-47